createdAt,value
2022-08-24T00:02:20.742Z,2.00
2022-08-24T00:04:47.644Z,1.92
2022-08-24T00:07:28.003Z,2.20
2022-08-24T00:09:55.351Z,2.13
2022-08-24T00:12:22.201Z,2.40
2022-08-24T00:14:49.401Z,2.20
2022-08-24T00:17:17.113Z,2.10
2022-08-24T00:19:44.031Z,2.10
2022-08-24T00:22:11.040Z,2.25
2022-08-24T00:24:38.050Z,2.20
2022-08-24T00:27:06.827Z,2.50
2022-08-24T00:29:34.714Z,2.20
2022-08-24T00:32:01.709Z,2.17
2022-08-24T00:34:28.683Z,2.10
2022-08-24T00:36:55.512Z,2.40
2022-08-24T00:39:22.528Z,2.20
2022-08-24T00:41:51.468Z,2.10
2022-08-24T00:44:20.386Z,2.55
2022-08-24T00:47:02.139Z,2.17
2022-08-24T00:49:47.739Z,2.50
2022-08-24T00:52:17.954Z,2.58
2022-08-24T00:55:00.110Z,2.47
2022-08-24T00:57:31.794Z,2.40
2022-08-24T01:00:05.074Z,2.50
2022-08-24T01:02:35.276Z,2.40
2022-08-24T01:05:07.610Z,2.75
2022-08-24T01:07:35.883Z,2.70
2022-08-24T01:10:08.740Z,2.60
2022-08-24T01:12:37.843Z,2.60
2022-08-24T01:15:07.785Z,2.70
2022-08-24T01:17:39.134Z,2.78
2022-08-24T01:20:08.943Z,2.70
2022-08-24T01:22:54.043Z,2.95
2022-08-24T01:25:23.186Z,2.60
2022-08-24T01:27:53.167Z,2.90
2022-08-24T01:30:21.942Z,3.00
2022-08-24T01:33:00.660Z,3.10
2022-08-24T01:35:28.665Z,3.10
2022-08-24T01:37:58.101Z,3.10
2022-08-24T01:40:33.339Z,2.80
2022-08-24T01:43:00.405Z,3.20
2022-08-24T01:45:27.667Z,3.50
2022-08-24T01:47:54.491Z,3.10
2022-08-24T01:50:21.307Z,3.30
2022-08-24T01:53:05.115Z,3.30
2022-08-24T01:55:33.439Z,3.28
2022-08-24T01:58:01.297Z,3.60
2022-08-24T02:00:29.051Z,3.20
2022-08-24T02:02:56.094Z,3.45
2022-08-24T02:05:23.425Z,3.50
2022-08-24T02:07:51.489Z,3.33
2022-08-24T02:10:19.197Z,3.30
2022-08-24T02:12:47.815Z,3.30
2022-08-24T02:15:14.591Z,3.80
2022-08-24T02:17:41.394Z,3.13
2022-08-24T02:20:08.938Z,2.88
2022-08-24T02:22:35.737Z,2.50
2022-08-24T02:25:02.513Z,3.30
2022-08-24T02:27:29.433Z,3.20
2022-08-24T02:29:56.209Z,3.20
2022-08-24T02:32:23.024Z,3.50
2022-08-24T02:34:49.829Z,3.50
2022-08-24T02:37:21.464Z,3.90
2022-08-24T02:39:48.413Z,3.40
2022-08-24T02:42:15.316Z,3.80
2022-08-24T02:44:42.125Z,3.22
2022-08-24T02:47:08.956Z,4.38
2022-08-24T02:49:36.049Z,4.03
2022-08-24T02:52:03.532Z,4.55
2022-08-24T02:54:30.349Z,4.32
2022-08-24T02:56:57.162Z,4.40
2022-08-24T02:59:23.969Z,4.50
2022-08-24T03:01:51.573Z,4.82
2022-08-24T03:04:19.268Z,4.70
2022-08-24T03:06:46.133Z,5.00
2022-08-24T03:09:13.391Z,4.70
2022-08-24T03:11:40.540Z,4.00
2022-08-24T03:14:12.100Z,4.82
2022-08-24T03:16:38.967Z,4.53
2022-08-24T03:19:05.851Z,4.13
2022-08-24T03:21:32.770Z,4.00
2022-08-24T03:23:59.846Z,4.10
2022-08-24T03:26:26.702Z,4.10
2022-08-24T03:28:54.174Z,4.65
2022-08-24T03:31:21.075Z,6.10
2022-08-24T03:33:47.967Z,4.50
2022-08-24T03:36:14.800Z,4.35
2022-08-24T03:38:42.509Z,4.40
2022-08-24T03:41:09.715Z,4.70
2022-08-24T03:43:39.842Z,4.57
2022-08-24T03:46:08.243Z,5.25
2022-08-24T03:48:35.623Z,5.05
2022-08-24T03:51:02.664Z,5.68
2022-08-24T03:53:29.521Z,5.93
2022-08-24T03:55:56.342Z,5.05
2022-08-24T03:58:23.154Z,5.40
2022-08-24T04:00:50.034Z,5.80
2022-08-24T04:03:17.027Z,6.70
2022-08-24T04:05:43.830Z,5.77
2022-08-24T04:08:11.185Z,21.70
2022-08-24T04:10:43.611Z,21.75
2022-08-24T04:13:10.592Z,18.23
2022-08-24T04:15:40.871Z,17.73
2022-08-24T04:18:07.884Z,5.22
2022-08-24T04:20:43.979Z,3.50
2022-08-24T04:23:13.091Z,3.15
2022-08-24T04:25:45.773Z,3.55
2022-08-24T04:28:14.682Z,3.80
2022-08-24T04:30:43.772Z,16.42
2022-08-24T04:33:13.049Z,13.50
2022-08-24T04:35:41.876Z,6.35
2022-08-24T04:38:09.265Z,6.20
2022-08-24T04:40:39.788Z,6.20
2022-08-24T04:43:07.099Z,5.20
2022-08-24T04:45:37.817Z,5.97
2022-08-24T04:48:04.801Z,6.20
2022-08-24T04:50:35.175Z,6.57
2022-08-24T04:53:02.735Z,6.30
2022-08-24T04:55:29.680Z,7.00
2022-08-24T04:57:56.532Z,8.50
2022-08-24T05:00:23.405Z,7.90
2022-08-24T05:02:50.383Z,9.45
2022-08-24T05:05:17.270Z,7.00
2022-08-24T05:07:44.085Z,7.00
2022-08-24T05:10:11.109Z,6.25
2022-08-24T05:12:38.486Z,5.07
2022-08-24T05:15:06.387Z,7.80
2022-08-24T05:17:33.198Z,5.30
2022-08-24T05:20:00.103Z,5.40
2022-08-24T05:22:27.361Z,4.53
2022-08-24T05:24:54.163Z,4.70
2022-08-24T05:27:21.100Z,3.72
2022-08-24T05:29:55.071Z,3.70
2022-08-24T05:32:22.330Z,3.70
2022-08-24T05:34:49.123Z,3.60
2022-08-24T05:37:15.907Z,3.30
2022-08-24T05:39:42.774Z,3.40
2022-08-24T05:42:09.897Z,3.90
2022-08-24T05:44:36.690Z,4.18
2022-08-24T05:47:03.665Z,3.80
2022-08-24T05:49:30.637Z,3.70
2022-08-24T05:51:57.421Z,3.63
2022-08-24T05:54:24.228Z,3.83
2022-08-24T05:56:51.035Z,4.00
2022-08-24T05:59:18.238Z,4.22
2022-08-24T06:01:45.672Z,9.80
2022-08-24T06:04:12.728Z,6.90
2022-08-24T06:06:39.683Z,4.90
2022-08-24T06:09:06.682Z,4.00
2022-08-24T06:11:37.405Z,5.28
2022-08-24T06:14:08.300Z,5.90
2022-08-24T06:16:43.530Z,5.20
2022-08-24T06:19:12.730Z,5.80
2022-08-24T06:21:40.312Z,5.37
2022-08-24T06:24:07.754Z,5.10
2022-08-24T06:26:35.754Z,4.75
2022-08-24T06:29:02.803Z,4.87
2022-08-24T06:31:29.732Z,4.40
2022-08-24T06:34:10.323Z,4.18
2022-08-24T06:36:37.166Z,4.72
2022-08-24T06:39:07.240Z,4.40
2022-08-24T06:41:37.750Z,4.27
2022-08-24T06:44:05.807Z,4.10
2022-08-24T06:46:33.252Z,4.40
2022-08-24T06:49:00.383Z,4.00
2022-08-24T06:51:27.190Z,5.10
2022-08-24T06:53:55.037Z,5.32
2022-08-24T06:56:22.004Z,5.80
2022-08-24T06:58:48.770Z,5.97
2022-08-24T07:01:20.109Z,5.80
2022-08-24T07:03:47.268Z,5.25
2022-08-24T07:06:14.539Z,4.90
2022-08-24T07:08:42.777Z,5.15
2022-08-24T07:11:10.910Z,5.10
2022-08-24T07:13:38.062Z,5.25
2022-08-24T07:16:05.133Z,5.47
2022-08-24T07:18:32.012Z,7.68
2022-08-24T07:21:01.317Z,4.95
2022-08-24T07:23:41.238Z,5.85
2022-08-24T07:26:20.977Z,5.30
2022-08-24T07:28:56.218Z,4.90
2022-08-24T07:31:23.136Z,4.43
2022-08-24T07:33:49.973Z,5.13
2022-08-24T07:36:20.897Z,4.60
2022-08-24T07:38:52.835Z,4.30
2022-08-24T07:41:46.902Z,3.92
2022-08-24T07:44:09.379Z,3.40
2022-08-24T07:46:36.901Z,3.58
2022-08-24T07:49:11.900Z,3.90
2022-08-24T07:51:46.991Z,4.53
2022-08-24T07:54:14.983Z,5.53
2022-08-24T07:56:42.808Z,4.60
2022-08-24T07:59:12.970Z,3.90
2022-08-24T08:01:41.061Z,3.90
2022-08-24T08:04:08.333Z,4.03
2022-08-24T08:06:35.459Z,4.00
2022-08-24T08:09:02.298Z,4.63
2022-08-24T08:11:29.120Z,4.10
2022-08-24T08:13:55.941Z,3.85
2022-08-24T08:16:22.796Z,3.80
2022-08-24T08:18:56.459Z,3.90
2022-08-24T08:21:48.730Z,3.70
2022-08-24T08:24:16.046Z,4.32
2022-08-24T08:26:44.940Z,4.00
2022-08-24T08:29:12.508Z,4.37
2022-08-24T08:31:40.433Z,4.25
2022-08-24T08:34:08.145Z,3.80
2022-08-24T08:36:35.662Z,3.80
2022-08-24T08:39:02.926Z,4.20
2022-08-24T08:41:44.766Z,3.65
2022-08-24T08:44:38.186Z,4.30
2022-08-24T08:47:08.073Z,4.60
2022-08-24T08:50:05.307Z,4.78
2022-08-24T08:52:41.351Z,4.63
2022-08-24T08:55:29.814Z,4.68
2022-08-24T08:58:12.591Z,3.70
2022-08-24T09:00:58.441Z,4.40
2022-08-24T09:03:36.477Z,4.72
2022-08-24T09:06:34.679Z,4.20
2022-08-24T09:09:10.195Z,4.00
2022-08-24T09:12:08.235Z,4.88
2022-08-24T09:14:56.842Z,4.60
2022-08-24T09:17:51.065Z,4.70
2022-08-24T09:20:55.429Z,4.32
2022-08-24T09:23:41.879Z,4.75
2022-08-24T09:26:18.594Z,4.20
2022-08-24T09:29:08.096Z,3.53
2022-08-24T09:32:22.514Z,3.40
2022-08-24T09:35:26.620Z,3.53
2022-08-24T09:38:16.761Z,3.95
2022-08-24T09:41:16.715Z,3.90
2022-08-24T09:44:13.917Z,2.95
2022-08-24T09:46:46.536Z,3.70
2022-08-24T09:49:43.185Z,5.32
2022-08-24T09:52:40.745Z,3.40
2022-08-24T09:55:22.577Z,2.83
2022-08-24T09:58:22.171Z,2.80
2022-08-24T10:01:11.805Z,3.20
2022-08-24T10:03:53.363Z,2.90
2022-08-24T10:06:46.635Z,3.20
2022-08-24T10:09:37.791Z,2.80
2022-08-24T10:12:27.731Z,2.65
2022-08-24T10:15:21.177Z,3.10
2022-08-24T10:18:05.775Z,2.70
2022-08-24T10:23:06.163Z,3.60
2022-08-24T10:25:55.084Z,2.90
2022-08-24T10:28:21.873Z,2.70
2022-08-24T10:31:12.683Z,2.60
2022-08-24T10:34:38.358Z,2.72
2022-08-24T10:37:26.590Z,2.90
2022-08-24T10:40:40.110Z,2.95
2022-08-24T10:43:26.180Z,2.70
2022-08-24T10:46:04.872Z,3.38
2022-08-24T10:48:33.413Z,2.80
2022-08-24T10:51:33.758Z,2.50
2022-08-24T10:54:04.345Z,2.30
2022-08-24T10:56:41.910Z,2.60
2022-08-24T10:59:39.451Z,2.70
2022-08-24T11:02:35.052Z,2.70
2022-08-24T11:05:11.158Z,2.40
2022-08-24T11:07:55.471Z,3.10
2022-08-24T11:10:29.169Z,2.60
2022-08-24T11:12:56.550Z,3.22
2022-08-24T11:15:26.349Z,3.67
2022-08-24T11:18:03.460Z,2.78
2022-08-24T11:20:41.879Z,2.60
2022-08-24T11:23:14.603Z,2.70
2022-08-24T11:26:03.316Z,2.20
2022-08-24T11:28:32.568Z,2.30
2022-08-24T11:31:00.698Z,2.28
2022-08-24T11:33:34.126Z,2.60
2022-08-24T11:36:02.736Z,2.27
2022-08-24T11:38:32.676Z,2.50
2022-08-24T11:41:26.237Z,2.20
2022-08-24T11:44:03.560Z,2.50
2022-08-24T11:46:56.605Z,2.20
2022-08-24T11:49:29.356Z,1.93
2022-08-24T11:52:17.162Z,2.00
2022-08-24T11:55:09.540Z,2.00
2022-08-24T11:58:02.456Z,2.00
2022-08-24T12:00:48.174Z,1.80
2022-08-24T12:03:42.492Z,1.80
2022-08-24T12:06:33.005Z,1.90
2022-08-24T12:09:22.582Z,1.70
2022-08-24T12:12:07.738Z,1.70
2022-08-24T12:14:43.545Z,1.90
2022-08-24T12:17:14.579Z,1.90
2022-08-24T12:19:52.851Z,2.20
2022-08-24T12:22:21.515Z,2.10
2022-08-24T12:24:58.738Z,2.20
2022-08-24T12:27:26.749Z,2.20
2022-08-24T12:30:07.346Z,2.50
2022-08-24T12:32:45.151Z,2.15
2022-08-24T12:35:34.917Z,2.30
2022-08-24T12:38:43.711Z,2.00
2022-08-24T12:41:33.250Z,2.00
2022-08-24T12:44:12.157Z,1.90
2022-08-24T12:46:40.649Z,2.17
2022-08-24T12:49:19.280Z,1.90
2022-08-24T12:52:12.760Z,1.88
2022-08-24T12:55:14.011Z,1.70
2022-08-24T12:58:30.861Z,2.15
2022-08-24T13:00:52.741Z,1.70
2022-08-24T13:03:31.093Z,2.40
2022-08-24T13:06:00.862Z,4.82
2022-08-24T13:08:43.280Z,2.20
2022-08-24T13:11:14.224Z,1.77
2022-08-24T13:13:46.148Z,1.80
2022-08-24T13:17:06.729Z,1.70
2022-08-24T13:19:40.334Z,1.70
2022-08-24T13:22:09.876Z,1.70
2022-08-24T13:24:36.604Z,1.57
2022-08-24T13:27:12.471Z,1.65
2022-08-24T13:30:00.812Z,1.60
2022-08-24T13:32:35.519Z,1.63
2022-08-24T13:35:35.482Z,2.28
2022-08-24T13:38:24.016Z,2.42
2022-08-24T13:41:00.994Z,2.22
2022-08-24T13:43:38.538Z,1.85
2022-08-24T13:46:43.088Z,2.00
2022-08-24T13:49:15.947Z,1.73
2022-08-24T13:51:49.925Z,1.90
2022-08-24T13:54:43.891Z,1.80
2022-08-24T13:57:23.764Z,1.63
2022-08-24T14:00:15.840Z,1.70
2022-08-24T14:03:00.897Z,1.60
2022-08-24T14:05:46.352Z,1.70
2022-08-24T14:08:32.605Z,1.70
2022-08-24T14:11:08.085Z,1.60
2022-08-24T14:13:56.407Z,1.90
2022-08-24T14:16:44.041Z,1.63
2022-08-24T14:19:27.077Z,1.73
2022-08-24T14:22:16.022Z,3.53
2022-08-24T14:24:48.671Z,2.80
2022-08-24T14:27:33.950Z,3.42
2022-08-24T14:30:29.806Z,1.80
2022-08-24T14:32:59.558Z,1.70
2022-08-24T14:35:44.053Z,3.10
2022-08-24T14:38:19.745Z,4.22
2022-08-24T14:40:52.094Z,2.10
2022-08-24T14:43:22.110Z,2.10
2022-08-24T14:46:11.976Z,1.70
2022-08-24T14:49:09.619Z,1.70
2022-08-24T14:52:15.491Z,1.52
2022-08-24T14:55:02.446Z,1.30
2022-08-24T14:57:35.051Z,1.50
2022-08-24T15:00:18.291Z,1.88
2022-08-24T15:02:51.198Z,1.50
2022-08-24T15:05:24.133Z,1.40
2022-08-24T15:08:09.964Z,2.42
2022-08-24T15:10:55.307Z,7.60
2022-08-24T15:13:38.245Z,2.13
2022-08-24T15:16:13.219Z,1.48
2022-08-24T15:18:51.276Z,1.50
2022-08-24T15:21:28.787Z,1.40
2022-08-24T15:24:14.618Z,1.83
2022-08-24T15:26:58.841Z,1.40
2022-08-24T15:29:29.387Z,1.30
2022-08-24T15:32:02.347Z,1.60
2022-08-24T15:34:37.537Z,1.52
2022-08-24T15:37:04.982Z,1.70
2022-08-24T15:39:32.594Z,2.47
2022-08-24T15:44:24.540Z,1.50
2022-08-24T15:47:14.239Z,1.52
2022-08-24T15:50:09.153Z,4.93
2022-08-24T15:52:49.518Z,1.50
2022-08-24T15:55:33.573Z,1.20
2022-08-24T15:58:12.409Z,1.67
2022-08-24T16:00:43.785Z,1.60
2022-08-24T16:03:38.911Z,1.40
2022-08-24T16:06:46.377Z,1.30
2022-08-24T16:09:18.808Z,1.48
2022-08-24T16:11:49.191Z,1.58
2022-08-24T16:14:29.402Z,1.40
2022-08-24T16:16:56.805Z,1.40
2022-08-24T16:19:30.593Z,1.40
2022-08-24T16:22:07.473Z,1.40
2022-08-24T16:24:37.664Z,1.35
2022-08-24T16:27:11.603Z,1.80
2022-08-24T16:29:38.396Z,1.40
2022-08-24T16:32:38.373Z,1.40
2022-08-24T16:35:09.259Z,1.50
2022-08-24T16:37:36.057Z,1.60
2022-08-24T16:40:04.288Z,1.40
2022-08-24T16:42:31.714Z,1.60
2022-08-24T16:44:59.429Z,1.63
2022-08-24T16:47:27.617Z,1.60
2022-08-24T16:49:55.112Z,1.60
2022-08-24T16:53:37.572Z,5.85
2022-08-24T16:56:04.598Z,1.80
2022-08-24T17:01:20.633Z,4.03
2022-08-24T17:06:34.220Z,1.80
2022-08-24T17:11:48.155Z,2.60
2022-08-24T17:13:52.798Z,0
2022-08-24T17:14:16.250Z,2.13
2022-08-24T17:16:43.390Z,1.90
2022-08-24T17:19:13.986Z,1.95
2022-08-24T17:21:41.304Z,1.77
2022-08-24T17:24:08.962Z,2.20
2022-08-24T17:26:36.804Z,2.05
2022-08-24T17:29:12.521Z,1.90
2022-08-24T17:31:43.791Z,2.00
2022-08-24T17:34:13.856Z,4.50
2022-08-24T17:36:43.589Z,2.10
2022-08-24T17:39:12.691Z,2.00
2022-08-24T17:41:39.534Z,2.50
2022-08-24T17:44:09.731Z,2.47
2022-08-24T17:46:36.614Z,2.70
2022-08-24T17:49:06.416Z,3.83
2022-08-24T17:51:33.203Z,2.38
2022-08-24T17:54:00.266Z,3.15
2022-08-24T17:56:31.427Z,2.28
2022-08-24T18:00:10.741Z,4.03
2022-08-24T18:02:37.780Z,6.63
2022-08-24T18:07:54.598Z,4.25
2022-08-24T18:13:12.352Z,2.40
2022-08-24T18:15:40.059Z,2.43
2022-08-24T18:17:00.266Z,0
2022-08-24T18:20:55.092Z,2.30
2022-08-24T18:23:24.774Z,2.55
2022-08-24T18:25:52.977Z,3.50
2022-08-24T18:28:22.351Z,4.53
2022-08-24T18:30:05.413Z,0
2022-08-24T18:30:50.873Z,6.03
2022-08-24T18:36:04.704Z,5.57
2022-08-24T18:41:18.605Z,2.63
2022-08-24T18:43:45.517Z,2.80
2022-08-24T18:46:12.650Z,2.60
2022-08-24T18:48:39.510Z,2.50
2022-08-24T18:51:06.485Z,2.50
2022-08-24T18:53:33.541Z,2.70
2022-08-24T18:56:08.177Z,2.70
2022-08-24T19:01:27.225Z,2.67
2022-08-24T19:03:54.482Z,2.60
2022-08-24T19:06:22.257Z,3.05
2022-08-24T19:08:49.327Z,2.80
2022-08-24T19:11:21.519Z,4.40
2022-08-24T19:13:48.426Z,3.15
2022-08-24T19:16:15.371Z,3.13
2022-08-24T19:18:42.196Z,3.00
2022-08-24T19:21:09.099Z,2.50
2022-08-24T19:23:37.005Z,2.40
2022-08-24T19:26:04.061Z,3.00
2022-08-24T19:28:31.250Z,2.70
2022-08-24T19:31:01.722Z,2.78
2022-08-24T19:33:34.323Z,2.97
2022-08-24T19:36:01.139Z,2.75
2022-08-24T19:38:27.926Z,2.70
2022-08-24T19:40:56.661Z,3.00
2022-08-24T19:43:28.038Z,2.80
2022-08-24T19:45:56.191Z,5.55
2022-08-24T19:48:23.045Z,4.30
2022-08-24T19:50:50.520Z,3.10
2022-08-24T19:53:17.332Z,2.90
2022-08-24T19:55:46.596Z,2.95
2022-08-24T19:58:28.907Z,3.00
2022-08-24T20:01:05.141Z,2.90
2022-08-24T20:03:31.955Z,2.97
2022-08-24T20:05:58.833Z,3.10
2022-08-24T20:08:25.654Z,4.18
2022-08-24T20:10:52.561Z,2.90
2022-08-24T20:13:19.502Z,3.30
2022-08-24T20:15:46.491Z,3.00
2022-08-24T20:18:14.767Z,3.10
2022-08-24T20:20:41.664Z,2.80
2022-08-24T20:23:08.896Z,3.30
2022-08-24T20:25:37.661Z,2.90
2022-08-24T20:28:28.203Z,4.80
2022-08-24T20:30:53.084Z,3.20
2022-08-24T20:33:20.382Z,2.90
2022-08-24T20:35:47.742Z,2.78
2022-08-24T20:38:18.165Z,3.35
2022-08-24T20:40:45.930Z,2.90
2022-08-24T20:43:12.935Z,3.20
2022-08-24T20:45:40.617Z,3.10
2022-08-24T20:48:08.380Z,3.30
2022-08-24T20:50:35.910Z,3.25
2022-08-24T20:53:02.932Z,3.15
2022-08-24T20:55:29.862Z,2.80
2022-08-24T20:57:58.382Z,3.10
2022-08-24T21:00:25.157Z,3.30
2022-08-24T21:02:51.950Z,3.00
2022-08-24T21:05:18.714Z,2.97
2022-08-24T21:07:45.628Z,3.00
2022-08-24T21:10:12.569Z,3.00
2022-08-24T21:12:39.417Z,3.13
2022-08-24T21:15:11.562Z,3.30
2022-08-24T21:17:38.368Z,3.30
2022-08-24T21:20:05.645Z,3.05
2022-08-24T21:22:32.428Z,3.15
2022-08-24T21:24:59.192Z,3.10
2022-08-24T21:27:26.016Z,3.40
2022-08-24T21:29:52.791Z,2.95
2022-08-24T21:32:19.569Z,3.03
2022-08-24T21:34:46.346Z,3.60
2022-08-24T21:37:16.559Z,3.20
2022-08-24T21:39:45.984Z,3.20
2022-08-24T21:42:14.943Z,3.30
2022-08-24T21:44:44.205Z,3.60
2022-08-24T21:47:11.048Z,3.25
2022-08-24T21:49:37.905Z,3.50
2022-08-24T21:52:04.694Z,3.30
2022-08-24T21:54:31.481Z,2.80
2022-08-24T21:56:58.436Z,3.40
2022-08-24T21:59:25.233Z,3.10
2022-08-24T22:01:52.041Z,3.22
2022-08-24T22:04:18.891Z,2.90
2022-08-24T22:06:45.681Z,3.10
2022-08-24T22:09:12.471Z,3.10
2022-08-24T22:11:39.403Z,3.10
2022-08-24T22:14:06.275Z,3.00
2022-08-24T22:16:33.141Z,3.40
2022-08-24T22:19:04.544Z,3.00
2022-08-24T22:21:31.982Z,3.20
2022-08-24T22:24:03.254Z,3.30
2022-08-24T22:26:30.207Z,3.00
2022-08-24T22:28:57.224Z,3.00
2022-08-24T22:31:28.541Z,3.10
2022-08-24T22:33:57.660Z,3.17
2022-08-24T22:36:26.176Z,2.97
2022-08-24T22:38:55.344Z,3.33
2022-08-24T22:41:22.479Z,3.40
2022-08-24T22:43:51.294Z,3.10
2022-08-24T22:46:18.729Z,3.30
2022-08-24T22:48:45.687Z,3.20
2022-08-24T22:51:13.047Z,3.10
2022-08-24T22:53:40.708Z,3.13
2022-08-24T22:56:38.169Z,3.53
2022-08-24T22:59:06.256Z,3.35
2022-08-24T23:01:38.968Z,3.33
2022-08-24T23:04:13.025Z,3.00
2022-08-24T23:06:39.822Z,3.30
2022-08-24T23:09:07.737Z,3.13
2022-08-24T23:11:35.202Z,3.30
2022-08-24T23:14:03.315Z,3.37
2022-08-24T23:16:33.175Z,3.50
2022-08-24T23:19:00.562Z,3.40
2022-08-24T23:21:27.679Z,3.15
2022-08-24T23:23:55.340Z,3.30
2022-08-24T23:26:22.493Z,3.53
2022-08-24T23:28:50.213Z,3.72
2022-08-24T23:31:18.868Z,3.83
2022-08-24T23:33:46.216Z,3.55
2022-08-24T23:36:15.673Z,3.60
2022-08-24T23:38:42.907Z,4.00
2022-08-24T23:41:13.935Z,3.65
2022-08-24T23:43:41.498Z,3.60
2022-08-24T23:46:09.820Z,3.60
2022-08-24T23:48:36.857Z,3.70
2022-08-24T23:51:07.555Z,3.60
2022-08-24T23:53:34.952Z,4.00
2022-08-24T23:56:13.996Z,4.10
2022-08-24T23:58:41.215Z,3.60
